Time;durP1;ratioP1;P1;durP2;ratioP2;P2;SDS_P1;SDS_P2;PMS_P1;PMS_P2;Temp;Humidity;BMP_temperature;BMP_pressure;BME280_temperature;BME280_humidity;BME280_pressure;Samples;Min_cycle;Max_cycle;Signal;HPM_P1;HPM_P2
2023/03/13 00:01:29;;;;;;;19.53;4.80;;;;;;;;;;5030215;28;20457;-72
2023/03/13 00:03:54;;;;;;;17.23;5.03;;;;;;;;;;5032282;28;20231;-72
2023/03/13 00:06:20;;;;;;;28.27;5.63;;;;;;;;;;5026043;28;20925;-72
2023/03/13 00:08:45;;;;;;;20.13;5.67;;;;;;;;;;5026924;28;20541;-72
2023/03/13 00:11:11;;;;;;;23.40;5.33;;;;;;;;;;5026855;28;20328;-72
2023/03/13 00:13:37;;;;;;;34.63;5.93;;;;;;;;;;5025855;28;20176;-72
2023/03/13 00:16:04;;;;;;;22.83;5.93;;;;;;;;;;5034096;28;20504;-72
2023/03/13 00:18:29;;;;;;;24.37;5.97;;;;;;;;;;5031677;28;20189;-72
2023/03/13 00:20:58;;;;;;;21.43;5.10;;;;;;;;;;5031152;28;20448;-72
2023/03/13 00:23:24;;;;;;;16.17;4.90;;;;;;;;;;5030749;28;20191;-72
2023/03/13 00:25:54;;;;;;;28.00;5.47;;;;;;;;;;5030505;28;21064;-72
2023/03/13 00:28:20;;;;;;;20.87;4.70;;;;;;;;;;5027445;28;20227;-72
2023/03/13 00:30:45;;;;;;;31.80;6.97;;;;;;;;;;5022100;28;20447;-72
2023/03/13 00:33:10;;;;;;;20.40;4.80;;;;;;;;;;5031466;28;20184;-72
2023/03/13 00:35:35;;;;;;;16.80;5.23;;;;;;;;;;5030309;28;20658;-72
2023/03/13 00:38:01;;;;;;;18.17;5.30;;;;;;;;;;5033701;28;20339;-72
2023/03/13 00:40:26;;;;;;;25.60;6.40;;;;;;;;;;5030678;28;20195;-72
2023/03/13 00:42:51;;;;;;;23.73;5.93;;;;;;;;;;5030659;28;20208;-72
2023/03/13 00:45:16;;;;;;;26.50;6.00;;;;;;;;;;5034376;28;20212;-73
2023/03/13 00:47:42;;;;;;;32.00;6.97;;;;;;;;;;5036496;28;20184;-72
2023/03/13 00:50:07;;;;;;;30.83;6.60;;;;;;;;;;5035007;28;20216;-73
2023/03/13 00:52:32;;;;;;;34.17;7.50;;;;;;;;;;5037525;28;20223;-72
2023/03/13 00:54:58;;;;;;;26.67;6.60;;;;;;;;;;5040023;28;20182;-73
2023/03/13 00:57:23;;;;;;;32.70;7.60;;;;;;;;;;5032712;28;20242;-73
2023/03/13 00:59:48;;;;;;;32.73;7.13;;;;;;;;;;5037476;28;20226;-72
2023/03/13 01:02:13;;;;;;;26.37;6.27;;;;;;;;;;5033483;28;20207;-73
2023/03/13 01:04:39;;;;;;;32.87;7.20;;;;;;;;;;5034976;28;20654;-72
2023/03/13 01:07:04;;;;;;;24.33;6.20;;;;;;;;;;5035729;28;20200;-73
2023/03/13 01:09:29;;;;;;;37.30;7.67;;;;;;;;;;5037128;28;20220;-72
2023/03/13 01:11:55;;;;;;;29.63;7.70;;;;;;;;;;5038880;28;20223;-72
2023/03/13 01:14:20;;;;;;;28.10;6.63;;;;;;;;;;5035443;28;20194;-73
2023/03/13 01:16:45;;;;;;;36.10;6.67;;;;;;;;;;5030585;28;20177;-74
2023/03/13 01:19:12;;;;;;;28.30;6.20;;;;;;;;;;5019909;28;20208;-74
2023/03/13 01:21:38;;;;;;;33.00;6.40;;;;;;;;;;5039633;28;20304;-74
2023/03/13 01:24:03;;;;;;;30.03;7.47;;;;;;;;;;5018689;28;20533;-73
2023/03/13 01:26:28;;;;;;;31.67;7.30;;;;;;;;;;5040786;28;20242;-73
2023/03/13 01:28:54;;;;;;;30.03;7.60;;;;;;;;;;5033039;28;20231;-74
2023/03/13 01:31:23;;;;;;;32.23;7.10;;;;;;;;;;5032010;28;20203;-73
2023/03/13 01:33:50;;;;;;;35.53;6.53;;;;;;;;;;5023012;28;20202;-74
2023/03/13 01:36:16;;;;;;;26.10;6.63;;;;;;;;;;5029443;28;20441;-74
2023/03/13 01:38:41;;;;;;;45.40;7.90;;;;;;;;;;5032545;28;20436;-73
2023/03/13 01:41:08;;;;;;;24.63;6.80;;;;;;;;;;5028042;28;20435;-73
2023/03/13 01:43:35;;;;;;;26.70;6.47;;;;;;;;;;5029705;28;20188;-73
2023/03/13 01:46:02;;;;;;;33.83;6.80;;;;;;;;;;5031178;28;20924;-73
2023/03/13 01:48:27;;;;;;;30.23;7.00;;;;;;;;;;5028356;28;20426;-73
2023/03/13 01:50:54;;;;;;;23.43;6.20;;;;;;;;;;5027844;28;20525;-73
2023/03/13 01:53:19;;;;;;;33.23;6.53;;;;;;;;;;5039775;28;20669;-73
2023/03/13 01:55:44;;;;;;;24.57;6.47;;;;;;;;;;5029064;28;20471;-73
2023/03/13 01:58:10;;;;;;;26.27;6.03;;;;;;;;;;5028084;28;20191;-73
2023/03/13 02:00:35;;;;;;;29.47;6.47;;;;;;;;;;5034664;28;20204;-73
2023/03/13 02:03:07;;;;;;;30.40;6.23;;;;;;;;;;5037609;28;20204;-73
2023/03/13 02:05:33;;;;;;;35.30;6.90;;;;;;;;;;5028560;28;20207;-73
2023/03/13 02:08:13;;;;;;;33.07;6.57;;;;;;;;;;5030682;28;20462;-74
2023/03/13 02:10:43;;;;;;;28.30;6.40;;;;;;;;;;5027575;28;20469;-73
2023/03/13 02:13:13;;;;;;;40.37;7.13;;;;;;;;;;5025866;28;20442;-76
2023/03/13 02:15:39;;;;;;;25.53;6.27;;;;;;;;;;5025509;28;20565;-74
2023/03/13 02:18:04;;;;;;;26.20;6.40;;;;;;;;;;5014355;28;20432;-74
2023/03/13 02:20:30;;;;;;;23.73;4.47;;;;;;;;;;5016659;28;20842;-74
2023/03/13 02:23:01;;;;;;;23.73;6.07;;;;;;;;;;5022085;28;20261;-74
2023/03/13 02:25:32;;;;;;;27.60;6.63;;;;;;;;;;5021496;28;20188;-74
2023/03/13 02:28:03;;;;;;;26.23;7.60;;;;;;;;;;5019359;28;20526;-73
2023/03/13 02:30:29;;;;;;;30.30;5.93;;;;;;;;;;5024350;28;20501;-73
2023/03/13 02:32:54;;;;;;;31.60;6.47;;;;;;;;;;5020331;28;20434;-73
2023/03/13 02:35:21;;;;;;;30.93;6.60;;;;;;;;;;5029414;28;20646;-73
2023/03/13 02:37:48;;;;;;;25.80;5.60;;;;;;;;;;5029581;28;20215;-73
2023/03/13 02:40:15;;;;;;;30.73;7.40;;;;;;;;;;5025611;28;20542;-73
2023/03/13 02:42:42;;;;;;;23.93;5.13;;;;;;;;;;5025830;28;21339;-72
2023/03/13 02:45:08;;;;;;;22.97;5.40;;;;;;;;;;5030822;28;20881;-73
2023/03/13 02:47:33;;;;;;;28.90;8.20;;;;;;;;;;5017960;28;20423;-73
2023/03/13 02:49:58;;;;;;;23.60;6.13;;;;;;;;;;5035214;28;20207;-73
2023/03/13 02:52:27;;;;;;;29.43;6.33;;;;;;;;;;5021565;28;20785;-73
2023/03/13 02:54:58;;;;;;;30.90;7.43;;;;;;;;;;5033549;28;20192;-73
2023/03/13 02:57:23;;;;;;;25.40;5.90;;;;;;;;;;5025990;28;20431;-73
2023/03/13 02:59:49;;;;;;;32.07;6.50;;;;;;;;;;5029764;28;20459;-73
2023/03/13 03:02:14;;;;;;;26.73;6.40;;;;;;;;;;5026531;28;20266;-73
2023/03/13 03:04:40;;;;;;;30.57;7.40;;;;;;;;;;5032974;28;20180;-74
2023/03/13 03:07:05;;;;;;;26.77;5.97;;;;;;;;;;5028389;28;20176;-75
2023/03/13 03:09:30;;;;;;;25.33;6.27;;;;;;;;;;5028437;28;20448;-74
2023/03/13 03:11:56;;;;;;;25.93;6.03;;;;;;;;;;5036514;28;20197;-74
2023/03/13 03:14:21;;;;;;;21.43;6.40;;;;;;;;;;5042502;28;21072;-74
2023/03/13 03:16:46;;;;;;;15.20;5.40;;;;;;;;;;5040195;28;20184;-73
2023/03/13 03:19:11;;;;;;;18.83;5.00;;;;;;;;;;5022560;28;20300;-74
2023/03/13 03:21:37;;;;;;;25.87;6.03;;;;;;;;;;5027326;28;20232;-73
2023/03/13 03:24:02;;;;;;;25.23;5.37;;;;;;;;;;5031367;28;20654;-73
2023/03/13 03:26:28;;;;;;;18.33;5.43;;;;;;;;;;5024352;28;21285;-73
2023/03/13 03:28:53;;;;;;;13.60;4.60;;;;;;;;;;5018151;28;20219;-74
2023/03/13 03:31:19;;;;;;;17.67;5.30;;;;;;;;;;5027965;28;20689;-73
2023/03/13 03:33:44;;;;;;;12.30;4.10;;;;;;;;;;5025090;28;20674;-74
2023/03/13 03:36:12;;;;;;;24.53;4.83;;;;;;;;;;5022459;28;20418;-74
2023/03/13 03:38:38;;;;;;;14.73;4.23;;;;;;;;;;5027121;28;20184;-74
2023/03/13 03:41:04;;;;;;;14.90;4.67;;;;;;;;;;5031465;28;20972;-74
2023/03/13 03:43:29;;;;;;;13.37;4.97;;;;;;;;;;5036052;28;20427;-74
2023/03/13 03:45:54;;;;;;;12.47;3.40;;;;;;;;;;5037904;28;20208;-74
2023/03/13 03:48:19;;;;;;;15.27;5.17;;;;;;;;;;5032021;28;20199;-72
2023/03/13 03:50:45;;;;;;;13.00;4.23;;;;;;;;;;5035418;28;20826;-72
2023/03/13 03:53:10;;;;;;;13.40;4.63;;;;;;;;;;5027831;28;20180;-72
2023/03/13 03:55:35;;;;;;;10.43;3.53;;;;;;;;;;5028895;28;20195;-72
2023/03/13 03:58:01;;;;;;;14.77;3.63;;;;;;;;;;5031261;28;20180;-72
2023/03/13 04:00:26;;;;;;;15.00;4.13;;;;;;;;;;5031550;28;20614;-72
2023/03/13 04:02:52;;;;;;;8.23;3.67;;;;;;;;;;5030769;28;20219;-72
2023/03/13 04:05:17;;;;;;;9.30;3.43;;;;;;;;;;5034832;28;21231;-72
2023/03/13 04:07:42;;;;;;;8.97;3.90;;;;;;;;;;5026775;28;20189;-72
2023/03/13 04:10:08;;;;;;;6.67;3.43;;;;;;;;;;5035682;28;20231;-72
2023/03/13 04:12:33;;;;;;;7.53;3.50;;;;;;;;;;5025795;28;20682;-71
2023/03/13 04:14:58;;;;;;;7.67;3.47;;;;;;;;;;5029214;28;20198;-72
2023/03/13 04:17:24;;;;;;;9.60;3.30;;;;;;;;;;5031423;28;20184;-71
2023/03/13 04:19:49;;;;;;;6.73;3.10;;;;;;;;;;5033869;28;20286;-72
2023/03/13 04:22:14;;;;;;;6.50;2.70;;;;;;;;;;5032660;28;20942;-72
2023/03/13 04:24:39;;;;;;;6.70;3.00;;;;;;;;;;5023857;28;20635;-72
2023/03/13 04:27:05;;;;;;;7.97;2.80;;;;;;;;;;5029733;28;20242;-72
2023/03/13 04:29:31;;;;;;;6.10;3.00;;;;;;;;;;5029953;28;20192;-71
2023/03/13 04:31:56;;;;;;;5.73;2.57;;;;;;;;;;5029907;28;20199;-71
2023/03/13 04:34:21;;;;;;;5.83;2.87;;;;;;;;;;5024840;28;20177;-71
2023/03/13 04:36:47;;;;;;;7.80;2.53;;;;;;;;;;5027149;28;20684;-71
2023/03/13 04:39:12;;;;;;;8.03;2.67;;;;;;;;;;5025524;28;20294;-71
2023/03/13 04:41:37;;;;;;;5.03;2.80;;;;;;;;;;5030211;28;20216;-71
2023/03/13 04:44:03;;;;;;;5.03;2.57;;;;;;;;;;5045968;22;20255;-72
2023/03/13 04:46:28;;;;;;;3.10;2.20;;;;;;;;;;5044726;28;20267;-72
2023/03/13 04:48:53;;;;;;;5.30;2.03;;;;;;;;;;5046380;28;20523;-75
2023/03/13 04:51:18;;;;;;;5.03;2.33;;;;;;;;;;5043771;28;20190;-73
2023/03/13 04:53:43;;;;;;;4.80;2.27;;;;;;;;;;5043608;28;20204;-72
2023/03/13 04:56:10;;;;;;;2.87;2.00;;;;;;;;;;5047531;28;20271;-73
2023/03/13 04:58:36;;;;;;;3.70;2.00;;;;;;;;;;5048454;28;20192;-72
2023/03/13 05:01:01;;;;;;;3.50;2.43;;;;;;;;;;5049718;28;20438;-72
2023/03/13 05:03:26;;;;;;;2.37;1.90;;;;;;;;;;5047698;28;20246;-73
2023/03/13 05:05:51;;;;;;;3.43;2.50;;;;;;;;;;5047036;28;20877;-73
2023/03/13 05:08:17;;;;;;;3.00;2.40;;;;;;;;;;5045965;28;20186;-74
2023/03/13 05:10:42;;;;;;;6.50;2.33;;;;;;;;;;5044562;28;20203;-73
2023/03/13 05:13:08;;;;;;;3.10;2.17;;;;;;;;;;5046756;28;20207;-72
2023/03/13 05:15:33;;;;;;;3.80;2.90;;;;;;;;;;5039696;28;20184;-72
2023/03/13 05:17:58;;;;;;;3.67;2.50;;;;;;;;;;5042657;28;20711;-73
2023/03/13 05:20:23;;;;;;;3.80;2.60;;;;;;;;;;5039382;28;20251;-73
2023/03/13 05:22:49;;;;;;;7.10;3.40;;;;;;;;;;5042809;28;20214;-72
2023/03/13 05:25:14;;;;;;;2.70;2.33;;;;;;;;;;5031509;28;20189;-73
2023/03/13 05:27:39;;;;;;;3.53;2.80;;;;;;;;;;5041813;28;20642;-72
2023/03/13 05:30:05;;;;;;;2.90;2.60;;;;;;;;;;5041866;28;20180;-71
2023/03/13 05:32:30;;;;;;;7.07;3.20;;;;;;;;;;5034320;28;21102;-71
2023/03/13 05:34:56;;;;;;;3.67;3.10;;;;;;;;;;5040885;28;20697;-71
2023/03/13 05:37:21;;;;;;;4.13;3.37;;;;;;;;;;5043399;28;20185;-73
2023/03/13 05:39:46;;;;;;;3.47;2.97;;;;;;;;;;5042724;28;20183;-73
2023/03/13 05:42:11;;;;;;;6.80;4.33;;;;;;;;;;5035316;28;20199;-73
2023/03/13 05:44:37;;;;;;;3.97;3.57;;;;;;;;;;5039459;28;20735;-73
2023/03/13 05:47:02;;;;;;;5.40;3.43;;;;;;;;;;5037877;28;20172;-73
2023/03/13 05:49:27;;;;;;;7.23;4.60;;;;;;;;;;5039889;28;20610;-73
2023/03/13 05:51:53;;;;;;;4.43;4.00;;;;;;;;;;5043226;28;20266;-72
2023/03/13 05:54:18;;;;;;;8.87;4.50;;;;;;;;;;5038073;28;20199;-71
2023/03/13 05:56:43;;;;;;;4.70;3.97;;;;;;;;;;5039264;28;20590;-72
2023/03/13 05:59:09;;;;;;;4.50;3.80;;;;;;;;;;5033288;28;20648;-72
2023/03/13 06:01:34;;;;;;;5.53;3.77;;;;;;;;;;5043171;28;20282;-73
2023/03/13 06:03:59;;;;;;;5.93;3.83;;;;;;;;;;5035930;28;20582;-73
2023/03/13 06:06:25;;;;;;;5.27;4.00;;;;;;;;;;5038226;28;20565;-73
2023/03/13 06:08:53;;;;;;;4.67;3.50;;;;;;;;;;5034583;28;20179;-73
2023/03/13 06:11:18;;;;;;;5.20;4.03;;;;;;;;;;5039080;28;20176;-73
2023/03/13 06:13:43;;;;;;;8.27;4.60;;;;;;;;;;5039085;28;20446;-73
2023/03/13 06:16:09;;;;;;;7.53;4.60;;;;;;;;;;5038579;28;20696;-73
2023/03/13 06:18:35;;;;;;;7.53;3.93;;;;;;;;;;5041153;28;20180;-72
2023/03/13 06:21:01;;;;;;;6.47;4.43;;;;;;;;;;5039870;28;20436;-73
2023/03/13 06:23:26;;;;;;;7.07;4.40;;;;;;;;;;5042754;28;20222;-73
2023/03/13 06:25:52;;;;;;;6.00;4.37;;;;;;;;;;5032655;28;20181;-74
2023/03/13 06:28:17;;;;;;;10.40;4.00;;;;;;;;;;5032938;28;20186;-74
2023/03/13 06:30:42;;;;;;;9.87;4.70;;;;;;;;;;5040171;28;20213;-74
2023/03/13 06:33:08;;;;;;;7.20;3.90;;;;;;;;;;5037461;28;20203;-72
2023/03/13 06:35:33;;;;;;;9.10;4.27;;;;;;;;;;5039887;28;20183;-72
2023/03/13 06:37:58;;;;;;;6.63;3.70;;;;;;;;;;5040097;28;20237;-72
2023/03/13 06:40:24;;;;;;;7.03;3.50;;;;;;;;;;5038248;28;20270;-72
2023/03/13 06:42:49;;;;;;;6.80;3.67;;;;;;;;;;5040754;28;20637;-72
2023/03/13 06:45:14;;;;;;;10.53;3.40;;;;;;;;;;5041521;28;20308;-71
2023/03/13 06:47:39;;;;;;;10.73;3.23;;;;;;;;;;5038711;28;20174;-72
2023/03/13 06:50:05;;;;;;;6.33;3.30;;;;;;;;;;5040928;28;20559;-73
2023/03/13 06:52:30;;;;;;;10.80;3.77;;;;;;;;;;5038648;28;20214;-72
2023/03/13 06:54:56;;;;;;;12.00;4.17;;;;;;;;;;5039870;28;20184;-72
2023/03/13 06:57:21;;;;;;;7.93;4.07;;;;;;;;;;5032627;28;20211;-72
2023/03/13 06:59:46;;;;;;;10.23;3.80;;;;;;;;;;5033163;28;20180;-74
2023/03/13 07:02:12;;;;;;;5.80;3.63;;;;;;;;;;5041905;28;20196;-73
2023/03/13 07:04:37;;;;;;;15.10;3.90;;;;;;;;;;5037813;28;20267;-73
2023/03/13 07:07:03;;;;;;;10.27;4.20;;;;;;;;;;5053179;28;20665;-73
2023/03/13 07:09:28;;;;;;;12.30;4.50;;;;;;;;;;5034767;28;20561;-73
2023/03/13 07:11:53;;;;;;;8.63;3.83;;;;;;;;;;5037532;28;20626;-73
2023/03/13 07:14:19;;;;;;;8.00;4.37;;;;;;;;;;5040918;28;20410;-73
2023/03/13 07:16:45;;;;;;;10.03;4.47;;;;;;;;;;5040194;28;20191;-72
2023/03/13 07:19:10;;;;;;;10.03;4.83;;;;;;;;;;5042671;28;20195;-73
2023/03/13 07:21:36;;;;;;;10.47;4.70;;;;;;;;;;5055282;28;20226;-73
2023/03/13 07:24:01;;;;;;;8.80;4.80;;;;;;;;;;5041614;28;20246;-73
2023/03/13 07:26:26;;;;;;;8.73;4.23;;;;;;;;;;5040828;28;20179;-73
2023/03/13 07:28:51;;;;;;;9.37;4.30;;;;;;;;;;5041147;28;20658;-73
2023/03/13 07:31:18;;;;;;;9.97;4.67;;;;;;;;;;5038686;28;20674;-73
2023/03/13 07:33:44;;;;;;;13.90;4.50;;;;;;;;;;5038898;28;20778;-73
2023/03/13 07:36:10;;;;;;;9.77;4.00;;;;;;;;;;5041912;28;20533;-75
2023/03/13 07:38:35;;;;;;;8.80;4.80;;;;;;;;;;5037569;28;20259;-74
2023/03/13 07:41:00;;;;;;;11.10;4.50;;;;;;;;;;5044238;28;20604;-73
2023/03/13 07:43:26;;;;;;;9.70;4.40;;;;;;;;;;5040996;28;20629;-73
2023/03/13 07:45:55;;;;;;;11.97;4.33;;;;;;;;;;5039379;28;20278;-72
2023/03/13 07:48:20;;;;;;;13.07;3.97;;;;;;;;;;5038608;28;20184;-73
2023/03/13 07:50:46;;;;;;;9.83;4.50;;;;;;;;;;5043024;28;20446;-73
2023/03/13 07:53:11;;;;;;;9.00;4.30;;;;;;;;;;5040908;28;20462;-73
2023/03/13 07:55:36;;;;;;;7.57;3.57;;;;;;;;;;5042661;28;20202;-73
2023/03/13 07:58:02;;;;;;;10.93;5.20;;;;;;;;;;5042225;28;20536;-73
2023/03/13 08:00:27;;;;;;;9.90;3.50;;;;;;;;;;5042904;28;20279;-72
2023/03/13 08:02:52;;;;;;;10.77;4.37;;;;;;;;;;5044591;28;20686;-73
2023/03/13 08:05:18;;;;;;;13.20;3.80;;;;;;;;;;5043536;28;20665;-73
2023/03/13 08:07:43;;;;;;;13.87;4.73;;;;;;;;;;5044452;28;20642;-72
2023/03/13 08:10:09;;;;;;;10.17;4.17;;;;;;;;;;5039369;28;20180;-73
2023/03/13 08:12:34;;;;;;;9.60;4.20;;;;;;;;;;5038526;28;20203;-73
2023/03/13 08:14:59;;;;;;;9.70;3.90;;;;;;;;;;5038280;28;20179;-72
2023/03/13 08:17:25;;;;;;;10.40;4.40;;;;;;;;;;5034989;28;20267;-72
2023/03/13 08:19:50;;;;;;;12.27;3.83;;;;;;;;;;5040275;28;20758;-74
2023/03/13 08:22:15;;;;;;;8.70;3.97;;;;;;;;;;5043159;28;20205;-73
2023/03/13 08:24:40;;;;;;;8.60;4.03;;;;;;;;;;5036964;28;20647;-73
2023/03/13 08:27:06;;;;;;;9.00;3.30;;;;;;;;;;5041017;28;20176;-73
2023/03/13 08:29:31;;;;;;;6.30;3.20;;;;;;;;;;5038329;28;20568;-72
2023/03/13 08:31:56;;;;;;;9.87;3.40;;;;;;;;;;5042172;28;20183;-72
2023/03/13 08:34:22;;;;;;;8.03;2.90;;;;;;;;;;5041640;28;20682;-72
2023/03/13 08:36:47;;;;;;;6.93;3.00;;;;;;;;;;5039709;28;20183;-72
2023/03/13 08:39:17;;;;;;;6.20;2.87;;;;;;;;;;5039727;28;20665;-73
2023/03/13 08:41:42;;;;;;;5.63;3.10;;;;;;;;;;5040033;28;20312;-73
2023/03/13 08:44:12;;;;;;;4.80;2.20;;;;;;;;;;5043886;28;20461;-68
2023/03/13 08:46:37;;;;;;;6.53;2.40;;;;;;;;;;5041044;28;20175;-68
2023/03/13 08:49:03;;;;;;;4.40;2.20;;;;;;;;;;5041729;28;20437;-68
2023/03/13 08:51:29;;;;;;;5.77;2.30;;;;;;;;;;5036466;28;20188;-72
2023/03/13 08:53:55;;;;;;;5.03;2.47;;;;;;;;;;5042650;28;20461;-72
2023/03/13 08:56:22;;;;;;;6.37;2.40;;;;;;;;;;5029342;28;20212;-73
2023/03/13 08:58:52;;;;;;;5.53;2.37;;;;;;;;;;5042846;28;20430;-72
2023/03/13 09:01:18;;;;;;;10.10;2.30;;;;;;;;;;5033830;28;20430;-72
2023/03/13 09:03:43;;;;;;;8.60;2.10;;;;;;;;;;5043622;28;20450;-71
2023/03/13 09:06:09;;;;;;;5.63;1.90;;;;;;;;;;5056137;28;20430;-71
2023/03/13 09:08:36;;;;;;;4.83;1.60;;;;;;;;;;5038543;28;20227;-69
2023/03/13 09:11:03;;;;;;;4.07;1.60;;;;;;;;;;5033291;28;20183;-69
2023/03/13 09:13:29;;;;;;;3.70;1.67;;;;;;;;;;5028674;28;20454;-69
2023/03/13 09:15:59;;;;;;;3.40;1.60;;;;;;;;;;5042684;28;20442;-69
2023/03/13 09:18:24;;;;;;;6.47;1.60;;;;;;;;;;5032097;28;20508;-68
2023/03/13 09:20:50;;;;;;;4.40;1.20;;;;;;;;;;5045670;28;20434;-68
2023/03/13 09:23:15;;;;;;;4.80;1.30;;;;;;;;;;5041644;28;20243;-69
2023/03/13 09:25:40;;;;;;;5.20;1.40;;;;;;;;;;5038567;28;20266;-68
2023/03/13 09:28:06;;;;;;;4.30;1.47;;;;;;;;;;5039981;28;20236;-69
2023/03/13 09:30:31;;;;;;;4.90;1.73;;;;;;;;;;5039306;28;20199;-68
2023/03/13 09:32:56;;;;;;;4.70;1.53;;;;;;;;;;5043210;28;20250;-69
2023/03/13 09:35:22;;;;;;;4.07;1.50;;;;;;;;;;5040115;28;20203;-68
2023/03/13 09:37:47;;;;;;;4.00;1.60;;;;;;;;;;5035753;28;20245;-68
2023/03/13 09:40:14;;;;;;;7.30;1.27;;;;;;;;;;5038655;28;20671;-67
2023/03/13 09:42:45;;;;;;;5.60;1.43;;;;;;;;;;5038949;28;20303;-68
2023/03/13 09:45:16;;;;;;;5.97;1.40;;;;;;;;;;5039515;28;20434;-68
2023/03/13 09:47:44;;;;;;;5.43;1.47;;;;;;;;;;5033449;28;21035;-68
2023/03/13 09:50:09;;;;;;;5.60;1.60;;;;;;;;;;5040537;28;20509;-68
2023/03/13 09:52:39;;;;;;;7.20;1.63;;;;;;;;;;5044399;28;20568;-68
2023/03/13 09:55:05;;;;;;;6.97;1.77;;;;;;;;;;5042874;28;20318;-68
2023/03/13 09:57:45;;;;;;;5.23;1.40;;;;;;;;;;5028891;28;20470;-68
2023/03/13 10:00:12;;;;;;;12.50;1.93;;;;;;;;;;5039825;28;20227;-68
2023/03/13 10:02:38;;;;;;;5.30;1.87;;;;;;;;;;5037892;28;20976;-68
2023/03/13 10:05:12;;;;;;;9.13;2.37;;;;;;;;;;5040589;28;20449;-68
2023/03/13 10:07:38;;;;;;;8.13;1.97;;;;;;;;;;5037535;28;20183;-68
2023/03/13 10:10:06;;;;;;;8.90;3.00;;;;;;;;;;5035088;28;20431;-68
2023/03/13 10:12:37;;;;;;;5.87;2.30;;;;;;;;;;5040154;28;20235;-68
2023/03/13 10:15:05;;;;;;;7.77;2.33;;;;;;;;;;5042097;28;20434;-68
2023/03/13 10:17:35;;;;;;;8.13;2.70;;;;;;;;;;5038313;28;20928;-68
2023/03/13 10:20:19;;;;;;;10.20;2.23;;;;;;;;;;5043455;28;20434;-68
2023/03/13 10:22:45;;;;;;;7.73;2.33;;;;;;;;;;5042857;28;20543;-74
2023/03/13 10:25:30;;;;;;;8.17;2.40;;;;;;;;;;5041041;28;20929;-74
2023/03/13 10:27:56;;;;;;;8.30;2.53;;;;;;;;;;5033661;28;20179;-73
2023/03/13 10:30:29;;;;;;;8.53;2.53;;;;;;;;;;5039177;28;20982;-73
2023/03/13 10:33:17;;;;;;;11.90;2.57;;;;;;;;;;5032671;28;20450;-73
2023/03/13 10:35:43;;;;;;;9.73;2.43;;;;;;;;;;5038673;28;20429;-73
2023/03/13 10:38:17;;;;;;;11.23;2.60;;;;;;;;;;5041217;28;20438;-73
2023/03/13 10:40:42;;;;;;;11.97;3.50;;;;;;;;;;5035708;28;20465;-73
2023/03/13 10:45:42;;;;;;;12.70;3.43;;;;;;;;;;5011078;28;20231;-72
2023/03/13 10:48:13;;;;;;;11.07;3.60;;;;;;;;;;5018886;28;20477;-71
2023/03/13 10:50:43;;;;;;;15.77;4.17;;;;;;;;;;5018671;28;20196;-71
2023/03/13 10:53:17;;;;;;;14.10;2.93;;;;;;;;;;5021658;28;20518;-71
2023/03/13 10:55:43;;;;;;;11.67;3.43;;;;;;;;;;5014607;28;20427;-71
2023/03/13 10:58:16;;;;;;;11.27;3.27;;;;;;;;;;5021727;28;20435;-71
2023/03/13 11:00:42;;;;;;;12.13;3.13;;;;;;;;;;5018212;28;20457;-72
2023/03/13 11:03:19;;;;;;;12.07;3.97;;;;;;;;;;5021731;28;20455;-72
2023/03/13 11:05:53;;;;;;;12.13;2.83;;;;;;;;;;5019145;28;20955;-72
2023/03/13 11:08:18;;;;;;;17.13;3.87;;;;;;;;;;5020713;28;20474;-72
2023/03/13 11:10:58;;;;;;;14.43;3.83;;;;;;;;;;5021040;28;20455;-71
2023/03/13 11:13:33;;;;;;;18.83;3.10;;;;;;;;;;5017665;28;20234;-72
2023/03/13 11:16:01;;;;;;;16.50;3.80;;;;;;;;;;5012988;28;20466;-72
2023/03/13 11:18:42;;;;;;;19.90;3.13;;;;;;;;;;5016461;28;20457;-71
2023/03/13 11:21:11;;;;;;;13.50;3.03;;;;;;;;;;5015502;28;20852;-72
2023/03/13 11:23:38;;;;;;;17.67;3.53;;;;;;;;;;5020595;28;20474;-71
2023/03/13 11:26:18;;;;;;;14.77;3.37;;;;;;;;;;5023277;28;20966;-71
2023/03/13 11:28:43;;;;;;;14.23;3.43;;;;;;;;;;5021326;28;20418;-71
2023/03/13 11:31:11;;;;;;;12.57;2.90;;;;;;;;;;5024495;28;20426;-71
2023/03/13 11:33:36;;;;;;;13.13;3.50;;;;;;;;;;5023230;28;20292;-72
2023/03/13 11:36:10;;;;;;;16.60;3.20;;;;;;;;;;5026337;28;21182;-72
2023/03/13 11:38:37;;;;;;;17.00;4.37;;;;;;;;;;5022160;28;20227;-72
2023/03/13 11:41:21;;;;;;;12.17;2.60;;;;;;;;;;5022991;28;20433;-72
2023/03/13 11:44:01;;;;;;;16.30;3.20;;;;;;;;;;5022907;28;20470;-72
2023/03/13 11:46:37;;;;;;;14.40;4.27;;;;;;;;;;5024428;28;20429;-72
2023/03/13 11:49:10;;;;;;;19.53;4.70;;;;;;;;;;5018086;28;20488;-72
2023/03/13 11:51:59;;;;;;;14.30;3.13;;;;;;;;;;5024372;28;20799;-72
2023/03/13 11:54:26;;;;;;;16.37;3.50;;;;;;;;;;5024316;28;20470;-72
2023/03/13 11:56:54;;;;;;;14.53;3.40;;;;;;;;;;5021972;28;20438;-72
2023/03/13 11:59:19;;;;;;;11.90;3.03;;;;;;;;;;5029358;28;20528;-72
2023/03/13 12:01:56;;;;;;;12.97;3.30;;;;;;;;;;5025969;28;20470;-72
2023/03/13 12:04:28;;;;;;;10.07;3.50;;;;;;;;;;5022426;28;20291;-72
2023/03/13 12:07:02;;;;;;;14.77;2.70;;;;;;;;;;5019004;28;20510;-71
2023/03/13 12:09:32;;;;;;;10.07;2.63;;;;;;;;;;5013232;28;20439;-72
2023/03/13 12:12:03;;;;;;;11.70;3.00;;;;;;;;;;5021241;28;20925;-72
2023/03/13 12:14:31;;;;;;;10.23;2.73;;;;;;;;;;5020454;28;20451;-73
2023/03/13 12:17:02;;;;;;;11.90;2.90;;;;;;;;;;5017422;28;20985;-72
2023/03/13 12:19:31;;;;;;;12.83;2.80;;;;;;;;;;5025377;28;20435;-73
2023/03/13 12:22:01;;;;;;;12.03;3.33;;;;;;;;;;5021558;28;20537;-72
2023/03/13 12:24:34;;;;;;;9.10;2.50;;;;;;;;;;5019616;28;20459;-72
2023/03/13 12:27:02;;;;;;;7.37;2.63;;;;;;;;;;5018355;28;20430;-72
2023/03/13 12:29:42;;;;;;;12.00;2.47;;;;;;;;;;5012189;28;20427;-73
2023/03/13 12:32:16;;;;;;;10.13;2.10;;;;;;;;;;5023060;28;20949;-72
2023/03/13 12:34:42;;;;;;;7.13;2.97;;;;;;;;;;5023223;28;20446;-72
2023/03/13 12:37:17;;;;;;;7.23;1.83;;;;;;;;;;5016498;28;20445;-72
2023/03/13 12:39:48;;;;;;;6.80;1.80;;;;;;;;;;5021966;28;20593;-73
2023/03/13 12:42:20;;;;;;;12.60;2.30;;;;;;;;;;5019401;28;20466;-72
2023/03/13 12:44:45;;;;;;;13.17;2.33;;;;;;;;;;5019713;28;20925;-73
2023/03/13 12:47:20;;;;;;;6.27;2.57;;;;;;;;;;5022330;28;20435;-72
2023/03/13 12:50:04;;;;;;;7.00;2.30;;;;;;;;;;5022368;28;20172;-72
2023/03/13 12:52:41;;;;;;;7.13;1.90;;;;;;;;;;5018161;28;20435;-72
2023/03/13 12:55:22;;;;;;;11.67;2.80;;;;;;;;;;5019304;28;20539;-72
2023/03/13 12:57:57;;;;;;;9.43;3.00;;;;;;;;;;5019516;28;20430;-73
2023/03/13 13:00:25;;;;;;;9.20;2.70;;;;;;;;;;5024390;28;20437;-72
2023/03/13 13:03:02;;;;;;;11.90;3.10;;;;;;;;;;5026267;28;20474;-72
2023/03/13 13:05:27;;;;;;;16.77;3.40;;;;;;;;;;5019695;28;20463;-72
2023/03/13 13:07:54;;;;;;;11.30;2.80;;;;;;;;;;5022931;28;20485;-72
2023/03/13 13:10:25;;;;;;;13.30;3.70;;;;;;;;;;5022455;28;20196;-72
2023/03/13 13:13:08;;;;;;;8.20;3.13;;;;;;;;;;5019653;28;20470;-72
2023/03/13 13:15:34;;;;;;;12.03;3.17;;;;;;;;;;5025323;28;20890;-73
2023/03/13 13:18:11;;;;;;;11.93;3.30;;;;;;;;;;5019032;28;20435;-72
2023/03/13 13:20:39;;;;;;;11.70;3.60;;;;;;;;;;5013771;28;20188;-72
2023/03/13 13:23:23;;;;;;;15.23;3.27;;;;;;;;;;5021392;28;20518;-72
2023/03/13 13:25:49;;;;;;;14.60;4.20;;;;;;;;;;5016617;28;20427;-72
2023/03/13 13:28:14;;;;;;;11.23;3.03;;;;;;;;;;5018712;28;20446;-73
2023/03/13 13:30:40;;;;;;;17.03;4.50;;;;;;;;;;5019938;28;20264;-73
2023/03/13 13:33:33;;;;;;;29.37;4.90;;;;;;;;;;5023359;28;20181;-73
2023/03/13 13:36:08;;;;;;;14.43;3.73;;;;;;;;;;5012295;28;20506;-73
2023/03/13 13:38:42;;;;;;;16.03;3.90;;;;;;;;;;5019197;28;20435;-73
2023/03/13 13:41:07;;;;;;;16.80;3.77;;;;;;;;;;5015757;28;20446;-74
2023/03/13 13:43:33;;;;;;;14.40;4.30;;;;;;;;;;5015297;28;20992;-73
2023/03/13 13:46:18;;;;;;;18.47;3.57;;;;;;;;;;5023453;28;20292;-72
2023/03/13 13:48:43;;;;;;;17.80;4.13;;;;;;;;;;5017084;28;20486;-73
2023/03/13 13:51:12;;;;;;;17.23;3.70;;;;;;;;;;5015920;28;20442;-72
2023/03/13 13:53:43;;;;;;;16.10;3.53;;;;;;;;;;5019018;28;20216;-76
2023/03/13 13:56:27;;;;;;;21.67;4.70;;;;;;;;;;5020704;28;20431;-75
2023/03/13 13:59:15;;;;;;;13.50;3.50;;;;;;;;;;5011703;28;20442;-78
2023/03/13 14:01:41;;;;;;;23.30;4.90;;;;;;;;;;5021829;28;20957;-78
2023/03/13 14:04:16;;;;;;;18.03;4.97;;;;;;;;;;5024131;28;20446;-76
2023/03/13 14:06:43;;;;;;;13.53;3.80;;;;;;;;;;5018501;28;20944;-76
2023/03/13 14:09:30;;;;;;;21.37;4.60;;;;;;;;;;5012869;28;20458;-76
2023/03/13 14:11:55;;;;;;;26.73;4.80;;;;;;;;;;5019085;28;20472;-77
2023/03/13 14:14:21;;;;;;;16.37;5.27;;;;;;;;;;5012871;28;20451;-78
2023/03/13 14:16:49;;;;;;;15.40;4.00;;;;;;;;;;5007360;28;20216;-79
2023/03/13 14:19:20;;;;;;;15.00;4.80;;;;;;;;;;5014578;28;20195;-78
2023/03/13 14:21:45;;;;;;;29.37;4.60;;;;;;;;;;5023464;28;20835;-75
2023/03/13 14:24:14;;;;;;;12.90;3.63;;;;;;;;;;5022101;28;20529;-75
2023/03/13 14:26:41;;;;;;;13.13;4.60;;;;;;;;;;5015578;28;20895;-76
2023/03/13 14:29:14;;;;;;;20.23;4.63;;;;;;;;;;5017686;28;20480;-74
2023/03/13 14:31:39;;;;;;;18.67;4.30;;;;;;;;;;5015940;28;20442;-74
2023/03/13 14:34:10;;;;;;;18.90;5.23;;;;;;;;;;5025058;28;20451;-76
2023/03/13 14:36:49;;;;;;;21.33;4.87;;;;;;;;;;5012951;28;20188;-73
2023/03/13 14:39:29;;;;;;;15.73;4.13;;;;;;;;;;5016997;28;20944;-79
2023/03/13 14:41:55;;;;;;;20.90;4.70;;;;;;;;;;5017224;28;20466;-81